SSS Odyssey — WCZ2180 — position and weather

sailwx.info

Track history (hours):
 
Tides and Currents Weather Stations Pressure Air Temp Water Temp Dewpoint Dewpoint Depression Visibility Wind Speed Wind Dir Waves Ship Positions

SSS Odyssey

Ship's website: http://www.sssodyssey.org

Owner: Pacific Harbors Council, BSA, TACOMA, WA. More information available from US FCC via Universal Licensing System and Coast Guard Vessel Documentation Center.

Last reported at 2017-Feb-19 18:28 UTC. Time now 2017-Feb-19 18:43 UTC.
Position N 47°18' W 122°52'.

Length 30 m; draft 4 m.

Type: Ship. MMSI: 367404790.

Date/timePositionNaut miles runAvg speedWind from/ knotsBaromVisibWave heightAir tempDewpointWater temp
2017-Feb-19 18:28N 47°18' W 122°52'1 0.1
2017-Feb-18 20:29N 47°18' W 122°51'11 5.1
2017-Feb-18 18:25N 47°13' W 122°37'7 8.1
2017-Feb-18 17:33N 47°19' W 122°33'5 5.1
2017-Feb-18 16:32N 47°22' W 122°27'0 0.0
2017-Feb-18 15:32N 47°22' W 122°27'0 0.0
2017-Feb-18 14:32N 47°22' W 122°27'0 0.0
2017-Feb-18 13:32N 47°22' W 122°27'0 0.0
2017-Feb-18 12:32N 47°22' W 122°27'0 0.0
2017-Feb-18 11:32N 47°22' W 122°27'0 0.0
2017-Feb-18 10:29N 47°22' W 122°27'0 0.0
2017-Feb-18 09:32N 47°22' W 122°27'0 0.0
2017-Feb-18 08:32N 47°22' W 122°27'0 0.0
2017-Feb-18 07:29N 47°22' W 122°27'0 0.0
2017-Feb-18 06:29N 47°22' W 122°27'0 0.0
2017-Feb-18 05:32N 47°22' W 122°27'0 0.0
2017-Feb-18 04:32N 47°22' W 122°27'2 1.7
2017-Feb-18 03:33N 47°21' W 122°29'6 5.9
2017-Feb-18 02:30N 47°15' W 122°26'0 0.0
2017-Feb-18 01:33N 47°15' W 122°26'1 1.4
2017-Feb-18 00:33N 47°17' W 122°27'0 0.4
2017-Feb-17 23:33N 47°17' W 122°27'2 1.7
2017-Feb-17 22:29N 47°15' W 122°26'0 0.0
2017-Feb-17 21:32N 47°15' W 122°26'0 0.0
2017-Feb-17 20:32N 47°15' W 122°26'0 0.0
2017-Feb-17 19:32N 47°15' W 122°26'0 0.0
2017-Feb-17 18:32N 47°15' W 122°26'0 0.0
2017-Feb-17 17:32N 47°15' W 122°26'0 0.0
2017-Feb-17 16:32N 47°15' W 122°26'0 0.0
2017-Feb-17 15:32N 47°15' W 122°26'0 0.0
2017-Feb-17 14:26N 47°15' W 122°26'0 0.0
2017-Feb-17 13:32N 47°15' W 122°26'0 0.0
2017-Feb-17 12:32N 47°15' W 122°26'0 0.0
2017-Feb-17 11:32N 47°15' W 122°26'0 0.0
2017-Feb-17 10:08N 47°15' W 122°26'0 0.0
2017-Feb-17 09:32N 47°15' W 122°26'0 0.0
2017-Feb-17 08:32N 47°15' W 122°26'0 0.0
2017-Feb-17 07:20N 47°15' W 122°26'0 0.0
2017-Feb-17 06:29N 47°15' W 122°26'0 0.0
2017-Feb-17 05:29N 47°15' W 122°26'0 0.0
2017-Feb-17 04:32N 47°15' W 122°26'0 0.0
2017-Feb-17 03:32N 47°15' W 122°26'0 0.0
2017-Feb-17 02:32N 47°15' W 122°26'0 0.0
2017-Feb-17 01:32N 47°15' W 122°26'0 0.0
2017-Feb-17 00:29N 47°15' W 122°26'0 0.0
2017-Feb-16 23:26N 47°15' W 122°26'0 0.0
2017-Feb-16 22:26N 47°15' W 122°26'0 0.0
2017-Feb-16 21:32N 47°15' W 122°26'0 0.0
2017-Feb-16 20:26N 47°15' W 122°26'0 0.0
2017-Feb-16 19:20N 47°15' W 122°26'0 0.0
2017-Feb-16 18:32N 47°15' W 122°26'0 0.1
2017-Feb-16 17:32N 47°15' W 122°26'0 0.1
2017-Feb-16 16:32N 47°15' W 122°26'0 0.0
2017-Feb-16 15:26N 47°15' W 122°26'0 0.0
2017-Feb-16 14:32N 47°15' W 122°26'0 0.0
2017-Feb-16 13:32N 47°15' W 122°26'0 0.0
2017-Feb-16 12:32N 47°15' W 122°26'0 0.0
2017-Feb-16 11:32N 47°15' W 122°26'0 0.0
2017-Feb-16 10:29N 47°15' W 122°26'0 0.0
2017-Feb-16 09:32N 47°15' W 122°26'0 0.0
2017-Feb-16 08:23N 47°15' W 122°26'0 0.0
2017-Feb-16 07:29N 47°15' W 122°26'0 0.0
2017-Feb-16 06:23N 47°15' W 122°26'0 0.0
2017-Feb-16 05:32N 47°15' W 122°26'0 0.0
2017-Feb-16 04:32N 47°15' W 122°26'0 0.0
2017-Feb-16 03:32N 47°15' W 122°26'0 0.0
2017-Feb-16 02:32N 47°15' W 122°26'0 0.0
2017-Feb-16 01:26N 47°15' W 122°26'0 0.0
2017-Feb-16 00:32N 47°15' W 122°26'0 0.0
2017-Feb-15 23:32N 47°15' W 122°26'0 0.0
2017-Feb-15 22:29N 47°15' W 122°26'0 0.0
2017-Feb-15 21:32N 47°15' W 122°26'0 0.0
2017-Feb-15 20:32N 47°15' W 122°26'0 0.0
2017-Feb-15 19:32N 47°15' W 122°26'0 0.0
2017-Feb-15 18:29N 47°15' W 122°26'0 0.0
2017-Feb-15 17:32N 47°15' W 122°26'0 0.0
2017-Feb-15 16:32N 47°15' W 122°26'0 0.0
2017-Feb-15 15:32N 47°15' W 122°26'0 0.0
2017-Feb-15 14:32N 47°15' W 122°26'0 0.0
2017-Feb-15 13:32N 47°15' W 122°26'0 0.0
2017-Feb-15 12:32N 47°15' W 122°26'0 0.0
2017-Feb-15 11:32N 47°15' W 122°26'0 0.0
2017-Feb-15 10:32N 47°15' W 122°26'0 0.0
2017-Feb-15 09:26N 47°15' W 122°26'0 0.0
2017-Feb-15 08:26N 47°15' W 122°26'0 0.0
2017-Feb-15 07:32N 47°15' W 122°26'0 0.0
2017-Feb-15 06:28N 47°15' W 122°26'0 0.0
2017-Feb-15 05:29N 47°15' W 122°26'0 0.0
2017-Feb-15 04:31N 47°15' W 122°26'0 0.0
2017-Feb-15 03:32N 47°15' W 122°26'0 0.0
2017-Feb-15 02:31N 47°15' W 122°26'0 0.1
2017-Feb-15 01:32N 47°15' W 122°26'0 0.1
2017-Feb-15 00:31N 47°15' W 122°26'0 0.0
2017-Feb-14 23:32N 47°15' W 122°26'0 0.0
2017-Feb-14 22:31N 47°15' W 122°26'0 0.0
2017-Feb-14 21:31N 47°15' W 122°26'0 0.0
2017-Feb-14 20:31N 47°15' W 122°26'0 0.0
2017-Feb-14 19:29N 47°15' W 122°26'0 0.0
2017-Feb-14 18:31N 47°15' W 122°26'0 0.0
2017-Feb-14 17:32N 47°15' W 122°26'0 0.0
2017-Feb-14 16:32N 47°15' W 122°26'0 0.0
2017-Feb-14 15:32N 47°15' W 122°26'0 0.0
2017-Feb-14 14:31N 47°15' W 122°26'0 0.0
2017-Feb-14 13:31N 47°15' W 122°26'0 0.0
2017-Feb-14 12:28N 47°15' W 122°26'0 0.0
2017-Feb-14 11:31N 47°15' W 122°26'0 0.0
2017-Feb-14 10:31N 47°15' W 122°26'0 0.0
2017-Feb-14 09:31N 47°15' W 122°26'0 0.0
2017-Feb-14 08:31N 47°15' W 122°26'0 0.0
2017-Feb-14 07:28N 47°15' W 122°26'0 0.0
2017-Feb-14 06:32N 47°15' W 122°26'0 0.0
2017-Feb-14 05:31N 47°15' W 122°26'0 0.0
2017-Feb-14 04:31N 47°15' W 122°26'0 0.0
2017-Feb-14 03:31N 47°15' W 122°26'0 0.0
2017-Feb-14 02:31N 47°15' W 122°26'0 0.1
2017-Feb-14 01:31N 47°15' W 122°26'0 0.1
2017-Feb-14 00:31N 47°15' W 122°26'0 0.0
2017-Feb-13 23:31N 47°15' W 122°26'0 0.0
2017-Feb-13 22:31N 47°15' W 122°26'0 0.0
2017-Feb-13 21:31N 47°15' W 122°26'0 0.0
2017-Feb-13 20:31N 47°15' W 122°26'0 0.0
2017-Feb-13 19:31N 47°15' W 122°26'0 0.0
2017-Feb-13 18:31N 47°15' W 122°26'0 0.0
2017-Feb-13 17:31N 47°15' W 122°26'0 0.0
2017-Feb-13 16:31N 47°15' W 122°26'0 0.0
2017-Feb-13 15:31N 47°15' W 122°26'0 0.0
2017-Feb-13 14:31N 47°15' W 122°26'0 0.0
2017-Feb-13 13:31N 47°15' W 122°26'0 0.0
2017-Feb-13 12:31N 47°15' W 122°26'0 0.0
2017-Feb-13 11:31N 47°15' W 122°26'0 0.0
2017-Feb-13 10:31N 47°15' W 122°26'0 0.0
2017-Feb-13 09:31N 47°15' W 122°26'0 0.0
2017-Feb-13 08:31N 47°15' W 122°26'0 0.0
2017-Feb-13 07:28N 47°15' W 122°26'0 0.0
2017-Feb-13 06:31N 47°15' W 122°26'0 0.0
2017-Feb-13 05:33N 47°15' W 122°26'0 0.0
2017-Feb-13 04:33N 47°15' W 122°26'0 0.0
2017-Feb-13 03:33N 47°15' W 122°26'0 0.0
2017-Feb-13 02:33N 47°15' W 122°26'0 0.0
2017-Feb-13 01:33N 47°15' W 122°26'0 0.0
2017-Feb-13 00:33N 47°15' W 122°26'0 0.0
2017-Feb-12 23:33N 47°15' W 122°26'0 0.0
2017-Feb-12 22:33N 47°15' W 122°26'0 0.0
2017-Feb-12 21:33N 47°15' W 122°26'0 0.0
2017-Feb-12 20:33N 47°15' W 122°26'0 0.1
2017-Feb-12 19:33N 47°15' W 122°26'0 0.1
2017-Feb-12 18:33N 47°15' W 122°26'0 0.1
2017-Feb-12 17:33N 47°15' W 122°26'0 0.1
2017-Feb-12 16:33N 47°15' W 122°26'0 0.0
2017-Feb-12 15:33N 47°15' W 122°26'0 0.0
2017-Feb-12 14:33N 47°15' W 122°26'0 0.0
2017-Feb-12 13:33N 47°15' W 122°26'0 0.0
2017-Feb-12 12:33N 47°15' W 122°26'0 0.0
2017-Feb-12 11:33N 47°15' W 122°26'0 0.0
2017-Feb-12 10:30N 47°15' W 122°26'0 0.0
2017-Feb-12 09:33N 47°15' W 122°26'0 0.0
2017-Feb-12 08:30N 47°15' W 122°26'0 0.1
2017-Feb-12 07:27N 47°15' W 122°26'0 0.1
2017-Feb-12 06:30N 47°15' W 122°26'0 0.0
2017-Feb-12 05:33N 47°15' W 122°26'0 0.0
2017-Feb-12 04:33N 47°15' W 122°26'0 0.0
2017-Feb-12 03:33N 47°15' W 122°26'0 0.0
2017-Feb-12 02:33N 47°15' W 122°26'0 0.0
2017-Feb-12 01:32N 47°15' W 122°26'0 0.0
2017-Feb-12 00:33N 47°15' W 122°26'0 0.0
2017-Feb-11 23:33N 47°15' W 122°26'0 0.0
2017-Feb-11 22:29N 47°15' W 122°26'0 0.0
2017-Feb-11 21:30N 47°15' W 122°26'0 0.0
2017-Feb-11 20:33N 47°15' W 122°26'0 0.0
2017-Feb-11 19:32N 47°15' W 122°26'0 0.0
2017-Feb-11 18:32N 47°15' W 122°26'0 0.0
2017-Feb-11 17:30N 47°15' W 122°26'0 0.0
2017-Feb-11 16:33N 47°15' W 122°26'0 0.0
2017-Feb-11 15:29N 47°15' W 122°26'0 0.0
2017-Feb-11 14:32N 47°15' W 122°26'0 0.0
2017-Feb-11 13:30N 47°15' W 122°26'0 0.0
2017-Feb-11 12:32N 47°15' W 122°26'0 0.0
2017-Feb-11 11:32N 47°15' W 122°26'0 0.0
2017-Feb-11 10:32N 47°15' W 122°26'0 0.0
2017-Feb-11 09:32N 47°15' W 122°26'0 0.0
2017-Feb-11 08:32N 47°15' W 122°26'0 0.0
2017-Feb-11 07:32N 47°15' W 122°26'0 0.0
2017-Feb-11 06:32N 47°15' W 122°26'0 0.0
2017-Feb-11 05:32N 47°15' W 122°26'0 0.0
2017-Feb-11 04:32N 47°15' W 122°26'0 0.0
2017-Feb-11 03:32N 47°15' W 122°26'0 0.0
2017-Feb-11 02:32N 47°15' W 122°26'0 0.0
2017-Feb-11 01:32N 47°15' W 122°26'0 0.0
2017-Feb-11 00:32N 47°15' W 122°26'0 0.0
2017-Feb-10 23:32N 47°15' W 122°26'0 0.0
2017-Feb-10 22:32N 47°15' W 122°26'0 0.0
2017-Feb-10 21:32N 47°15' W 122°26'0 0.0
2017-Feb-10 20:32N 47°15' W 122°26'0 0.0
2017-Feb-10 19:32N 47°15' W 122°26'0 0.0
2017-Feb-10 18:32N 47°15' W 122°26'0 0.0
2017-Feb-10 17:32N 47°15' W 122°26'0 0.0
2017-Feb-10 16:32N 47°15' W 122°26'0 0.0
2017-Feb-10 15:20N 47°15' W 122°26'0 0.0
2017-Feb-10 14:26N 47°15' W 122°26'0 0.0
2017-Feb-10 13:32N 47°15' W 122°26'0 0.0
2017-Feb-10 12:26N 47°15' W 122°26'0 0.0
2017-Feb-10 11:11N 47°15' W 122°26'0 0.0
2017-Feb-10 10:32N 47°15' W 122°26'0 0.0
2017-Feb-10 07:32N 47°15' W 122°26'0 0.0
2017-Feb-10 06:32N 47°15' W 122°26'0 0.0
2017-Feb-10 05:29N 47°15' W 122°26'2 2.1
2017-Feb-10 04:33N 47°17' W 122°27'3 2.7
2017-Feb-10 03:33N 47°20' W 122°28'5 4.6
2017-Feb-10 02:32N 47°15' W 122°26'0 0.0
2017-Feb-10 01:32N 47°15' W 122°26'0 0.0
2017-Feb-10 00:32N 47°15' W 122°26'0 0.0
2017-Feb-09 23:29N 47°15' W 122°26'0 0.0
2017-Feb-09 22:32N 47°15' W 122°26'0 0.0
2017-Feb-09 21:29N 47°15' W 122°26'0 0.0
2017-Feb-09 20:29N 47°15' W 122°26'0 0.0
2017-Feb-09 19:32N 47°15' W 122°26'0 0.0
2017-Feb-09 18:32N 47°15' W 122°26'  
Track history (hours):
 
Tides and Currents Weather Stations Pressure Air Temp Water Temp Dewpoint Dewpoint Depression Visibility Wind Speed Wind Dir Waves Ship Positions

SSS Odyssey

Ship's website: http://www.sssodyssey.org

Owner: Pacific Harbors Council, BSA, TACOMA, WA. More information available from US FCC via Universal Licensing System and Coast Guard Vessel Documentation Center.

Last reported at 2017-Feb-19 18:28 UTC. Time now 2017-Feb-19 18:43 UTC.
Position N 47°18' W 122°52'.

Length 30 m; draft 4 m.

Type: Ship. MMSI: 367404790.

Date/timePositionNaut miles runAvg speedWind from/ knotsBaromVisibWave heightAir tempDewpointWater temp
2017-Feb-19 18:28N 47°18' W 122°52'1 0.1
2017-Feb-18 20:29N 47°18' W 122°51'11 5.1
2017-Feb-18 18:25N 47°13' W 122°37'7 8.1
2017-Feb-18 17:33N 47°19' W 122°33'5 5.1
2017-Feb-18 16:32N 47°22' W 122°27'0 0.0
2017-Feb-18 15:32N 47°22' W 122°27'0 0.0
2017-Feb-18 14:32N 47°22' W 122°27'0 0.0
2017-Feb-18 13:32N 47°22' W 122°27'0 0.0
2017-Feb-18 12:32N 47°22' W 122°27'0 0.0
2017-Feb-18 11:32N 47°22' W 122°27'0 0.0
2017-Feb-18 10:29N 47°22' W 122°27'0 0.0
2017-Feb-18 09:32N 47°22' W 122°27'0 0.0
2017-Feb-18 08:32N 47°22' W 122°27'0 0.0
2017-Feb-18 07:29N 47°22' W 122°27'0 0.0
2017-Feb-18 06:29N 47°22' W 122°27'0 0.0
2017-Feb-18 05:32N 47°22' W 122°27'0 0.0
2017-Feb-18 04:32N 47°22' W 122°27'2 1.7
2017-Feb-18 03:33N 47°21' W 122°29'6 5.9
2017-Feb-18 02:30N 47°15' W 122°26'0 0.0
2017-Feb-18 01:33N 47°15' W 122°26'1 1.4
2017-Feb-18 00:33N 47°17' W 122°27'0 0.4
2017-Feb-17 23:33N 47°17' W 122°27'2 1.7
2017-Feb-17 22:29N 47°15' W 122°26'0 0.0
2017-Feb-17 21:32N 47°15' W 122°26'0 0.0
2017-Feb-17 20:32N 47°15' W 122°26'0 0.0
2017-Feb-17 19:32N 47°15' W 122°26'0 0.0
2017-Feb-17 18:32N 47°15' W 122°26'0 0.0
2017-Feb-17 17:32N 47°15' W 122°26'0 0.0
2017-Feb-17 16:32N 47°15' W 122°26'0 0.0
2017-Feb-17 15:32N 47°15' W 122°26'0 0.0
2017-Feb-17 14:26N 47°15' W 122°26'0 0.0
2017-Feb-17 13:32N 47°15' W 122°26'0 0.0
2017-Feb-17 12:32N 47°15' W 122°26'0 0.0
2017-Feb-17 11:32N 47°15' W 122°26'0 0.0
2017-Feb-17 10:08N 47°15' W 122°26'0 0.0
2017-Feb-17 09:32N 47°15' W 122°26'0 0.0
2017-Feb-17 08:32N 47°15' W 122°26'0 0.0
2017-Feb-17 07:20N 47°15' W 122°26'0 0.0
2017-Feb-17 06:29N 47°15' W 122°26'0 0.0
2017-Feb-17 05:29N 47°15' W 122°26'0 0.0
2017-Feb-17 04:32N 47°15' W 122°26'0 0.0
2017-Feb-17 03:32N 47°15' W 122°26'0 0.0
2017-Feb-17 02:32N 47°15' W 122°26'0 0.0
2017-Feb-17 01:32N 47°15' W 122°26'0 0.0
2017-Feb-17 00:29N 47°15' W 122°26'0 0.0
2017-Feb-16 23:26N 47°15' W 122°26'0 0.0
2017-Feb-16 22:26N 47°15' W 122°26'0 0.0
2017-Feb-16 21:32N 47°15' W 122°26'0 0.0
2017-Feb-16 20:26N 47°15' W 122°26'0 0.0
2017-Feb-16 19:20N 47°15' W 122°26'0 0.0
2017-Feb-16 18:32N 47°15' W 122°26'0 0.1
2017-Feb-16 17:32N 47°15' W 122°26'0 0.1
2017-Feb-16 16:32N 47°15' W 122°26'0 0.0
2017-Feb-16 15:26N 47°15' W 122°26'0 0.0
2017-Feb-16 14:32N 47°15' W 122°26'0 0.0
2017-Feb-16 13:32N 47°15' W 122°26'0 0.0
2017-Feb-16 12:32N 47°15' W 122°26'0 0.0
2017-Feb-16 11:32N 47°15' W 122°26'0 0.0
2017-Feb-16 10:29N 47°15' W 122°26'0 0.0
2017-Feb-16 09:32N 47°15' W 122°26'0 0.0
2017-Feb-16 08:23N 47°15' W 122°26'0 0.0
2017-Feb-16 07:29N 47°15' W 122°26'0 0.0
2017-Feb-16 06:23N 47°15' W 122°26'0 0.0
2017-Feb-16 05:32N 47°15' W 122°26'0 0.0
2017-Feb-16 04:32N 47°15' W 122°26'0 0.0
2017-Feb-16 03:32N 47°15' W 122°26'0 0.0
2017-Feb-16 02:32N 47°15' W 122°26'0 0.0
2017-Feb-16 01:26N 47°15' W 122°26'0 0.0
2017-Feb-16 00:32N 47°15' W 122°26'0 0.0
2017-Feb-15 23:32N 47°15' W 122°26'0 0.0
2017-Feb-15 22:29N 47°15' W 122°26'0 0.0
2017-Feb-15 21:32N 47°15' W 122°26'0 0.0
2017-Feb-15 20:32N 47°15' W 122°26'0 0.0
2017-Feb-15 19:32N 47°15' W 122°26'0 0.0
2017-Feb-15 18:29N 47°15' W 122°26'0 0.0
2017-Feb-15 17:32N 47°15' W 122°26'0 0.0
2017-Feb-15 16:32N 47°15' W 122°26'0 0.0
2017-Feb-15 15:32N 47°15' W 122°26'0 0.0
2017-Feb-15 14:32N 47°15' W 122°26'0 0.0
2017-Feb-15 13:32N 47°15' W 122°26'0 0.0
2017-Feb-15 12:32N 47°15' W 122°26'0 0.0
2017-Feb-15 11:32N 47°15' W 122°26'0 0.0
2017-Feb-15 10:32N 47°15' W 122°26'0 0.0
2017-Feb-15 09:26N 47°15' W 122°26'0 0.0
2017-Feb-15 08:26N 47°15' W 122°26'0 0.0
2017-Feb-15 07:32N 47°15' W 122°26'0 0.0
2017-Feb-15 06:28N 47°15' W 122°26'0 0.0
2017-Feb-15 05:29N 47°15' W 122°26'0 0.0
2017-Feb-15 04:31N 47°15' W 122°26'0 0.0
2017-Feb-15 03:32N 47°15' W 122°26'0 0.0
2017-Feb-15 02:31N 47°15' W 122°26'0 0.1
2017-Feb-15 01:32N 47°15' W 122°26'0 0.1
2017-Feb-15 00:31N 47°15' W 122°26'0 0.0
2017-Feb-14 23:32N 47°15' W 122°26'0 0.0
2017-Feb-14 22:31N 47°15' W 122°26'0 0.0
2017-Feb-14 21:31N 47°15' W 122°26'0 0.0
2017-Feb-14 20:31N 47°15' W 122°26'0 0.0
2017-Feb-14 19:29N 47°15' W 122°26'0 0.0
2017-Feb-14 18:31N 47°15' W 122°26'0 0.0
2017-Feb-14 17:32N 47°15' W 122°26'0 0.0
2017-Feb-14 16:32N 47°15' W 122°26'0 0.0
2017-Feb-14 15:32N 47°15' W 122°26'0 0.0
2017-Feb-14 14:31N 47°15' W 122°26'0 0.0
2017-Feb-14 13:31N 47°15' W 122°26'0 0.0
2017-Feb-14 12:28N 47°15' W 122°26'0 0.0
2017-Feb-14 11:31N 47°15' W 122°26'0 0.0
2017-Feb-14 10:31N 47°15' W 122°26'0 0.0
2017-Feb-14 09:31N 47°15' W 122°26'0 0.0
2017-Feb-14 08:31N 47°15' W 122°26'0 0.0
2017-Feb-14 07:28N 47°15' W 122°26'0 0.0
2017-Feb-14 06:32N 47°15' W 122°26'0 0.0
2017-Feb-14 05:31N 47°15' W 122°26'0 0.0
2017-Feb-14 04:31N 47°15' W 122°26'0 0.0
2017-Feb-14 03:31N 47°15' W 122°26'0 0.0
2017-Feb-14 02:31N 47°15' W 122°26'0 0.1
2017-Feb-14 01:31N 47°15' W 122°26'0 0.1
2017-Feb-14 00:31N 47°15' W 122°26'0 0.0
2017-Feb-13 23:31N 47°15' W 122°26'0 0.0
2017-Feb-13 22:31N 47°15' W 122°26'0 0.0
2017-Feb-13 21:31N 47°15' W 122°26'0 0.0
2017-Feb-13 20:31N 47°15' W 122°26'0 0.0
2017-Feb-13 19:31N 47°15' W 122°26'0 0.0
2017-Feb-13 18:31N 47°15' W 122°26'0 0.0
2017-Feb-13 17:31N 47°15' W 122°26'0 0.0
2017-Feb-13 16:31N 47°15' W 122°26'0 0.0
2017-Feb-13 15:31N 47°15' W 122°26'0 0.0
2017-Feb-13 14:31N 47°15' W 122°26'0 0.0
2017-Feb-13 13:31N 47°15' W 122°26'0 0.0
2017-Feb-13 12:31N 47°15' W 122°26'0 0.0
2017-Feb-13 11:31N 47°15' W 122°26'0 0.0
2017-Feb-13 10:31N 47°15' W 122°26'0 0.0
2017-Feb-13 09:31N 47°15' W 122°26'0 0.0
2017-Feb-13 08:31N 47°15' W 122°26'0 0.0
2017-Feb-13 07:28N 47°15' W 122°26'0 0.0
2017-Feb-13 06:31N 47°15' W 122°26'0 0.0
2017-Feb-13 05:33N 47°15' W 122°26'0 0.0
2017-Feb-13 04:33N 47°15' W 122°26'0 0.0
2017-Feb-13 03:33N 47°15' W 122°26'0 0.0
2017-Feb-13 02:33N 47°15' W 122°26'0 0.0
2017-Feb-13 01:33N 47°15' W 122°26'0 0.0
2017-Feb-13 00:33N 47°15' W 122°26'0 0.0
2017-Feb-12 23:33N 47°15' W 122°26'0 0.0
2017-Feb-12 22:33N 47°15' W 122°26'0 0.0
2017-Feb-12 21:33N 47°15' W 122°26'0 0.0
2017-Feb-12 20:33N 47°15' W 122°26'0 0.1
2017-Feb-12 19:33N 47°15' W 122°26'0 0.1
2017-Feb-12 18:33N 47°15' W 122°26'0 0.1
2017-Feb-12 17:33N 47°15' W 122°26'0 0.1
2017-Feb-12 16:33N 47°15' W 122°26'0 0.0
2017-Feb-12 15:33N 47°15' W 122°26'0 0.0
2017-Feb-12 14:33N 47°15' W 122°26'0 0.0
2017-Feb-12 13:33N 47°15' W 122°26'0 0.0
2017-Feb-12 12:33N 47°15' W 122°26'0 0.0
2017-Feb-12 11:33N 47°15' W 122°26'0 0.0
2017-Feb-12 10:30N 47°15' W 122°26'0 0.0
2017-Feb-12 09:33N 47°15' W 122°26'0 0.0
2017-Feb-12 08:30N 47°15' W 122°26'0 0.1
2017-Feb-12 07:27N 47°15' W 122°26'0 0.1
2017-Feb-12 06:30N 47°15' W 122°26'0 0.0
2017-Feb-12 05:33N 47°15' W 122°26'0 0.0
2017-Feb-12 04:33N 47°15' W 122°26'0 0.0
2017-Feb-12 03:33N 47°15' W 122°26'0 0.0
2017-Feb-12 02:33N 47°15' W 122°26'0 0.0
2017-Feb-12 01:32N 47°15' W 122°26'0 0.0
2017-Feb-12 00:33N 47°15' W 122°26'0 0.0
2017-Feb-11 23:33N 47°15' W 122°26'0 0.0
2017-Feb-11 22:29N 47°15' W 122°26'0 0.0
2017-Feb-11 21:30N 47°15' W 122°26'0 0.0
2017-Feb-11 20:33N 47°15' W 122°26'0 0.0
2017-Feb-11 19:32N 47°15' W 122°26'0 0.0
2017-Feb-11 18:32N 47°15' W 122°26'0 0.0
2017-Feb-11 17:30N 47°15' W 122°26'0 0.0
2017-Feb-11 16:33N 47°15' W 122°26'0 0.0
2017-Feb-11 15:29N 47°15' W 122°26'0 0.0
2017-Feb-11 14:32N 47°15' W 122°26'0 0.0
2017-Feb-11 13:30N 47°15' W 122°26'0 0.0
2017-Feb-11 12:32N 47°15' W 122°26'0 0.0
2017-Feb-11 11:32N 47°15' W 122°26'0 0.0
2017-Feb-11 10:32N 47°15' W 122°26'0 0.0
2017-Feb-11 09:32N 47°15' W 122°26'0 0.0
2017-Feb-11 08:32N 47°15' W 122°26'0 0.0
2017-Feb-11 07:32N 47°15' W 122°26'0 0.0
2017-Feb-11 06:32N 47°15' W 122°26'0 0.0
2017-Feb-11 05:32N 47°15' W 122°26'0 0.0
2017-Feb-11 04:32N 47°15' W 122°26'0 0.0
2017-Feb-11 03:32N 47°15' W 122°26'0 0.0
2017-Feb-11 02:32N 47°15' W 122°26'0 0.0
2017-Feb-11 01:32N 47°15' W 122°26'0 0.0
2017-Feb-11 00:32N 47°15' W 122°26'0 0.0
2017-Feb-10 23:32N 47°15' W 122°26'0 0.0
2017-Feb-10 22:32N 47°15' W 122°26'0 0.0
2017-Feb-10 21:32N 47°15' W 122°26'0 0.0
2017-Feb-10 20:32N 47°15' W 122°26'0 0.0
2017-Feb-10 19:32N 47°15' W 122°26'0 0.0
2017-Feb-10 18:32N 47°15' W 122°26'0 0.0
2017-Feb-10 17:32N 47°15' W 122°26'0 0.0
2017-Feb-10 16:32N 47°15' W 122°26'0 0.0
2017-Feb-10 15:20N 47°15' W 122°26'0 0.0
2017-Feb-10 14:26N 47°15' W 122°26'0 0.0
2017-Feb-10 13:32N 47°15' W 122°26'0 0.0
2017-Feb-10 12:26N 47°15' W 122°26'0 0.0
2017-Feb-10 11:11N 47°15' W 122°26'0 0.0
2017-Feb-10 10:32N 47°15' W 122°26'0 0.0
2017-Feb-10 07:32N 47°15' W 122°26'0 0.0
2017-Feb-10 06:32N 47°15' W 122°26'0 0.0
2017-Feb-10 05:29N 47°15' W 122°26'2 2.1
2017-Feb-10 04:33N 47°17' W 122°27'3 2.7
2017-Feb-10 03:33N 47°20' W 122°28'5 4.6
2017-Feb-10 02:32N 47°15' W 122°26'0 0.0
2017-Feb-10 01:32N 47°15' W 122°26'0 0.0
2017-Feb-10 00:32N 47°15' W 122°26'0 0.0
2017-Feb-09 23:29N 47°15' W 122°26'0 0.0
2017-Feb-09 22:32N 47°15' W 122°26'0 0.0
2017-Feb-09 21:29N 47°15' W 122°26'0 0.0
2017-Feb-09 20:29N 47°15' W 122°26'0 0.0
2017-Feb-09 19:32N 47°15' W 122°26'0 0.0
2017-Feb-09 18:32N 47°15' W 122°26'  

Dump ship's entire track history